createdAt,value
2023-04-03T00:00:47.097Z,100968.75
2023-04-03T00:03:18.078Z,100969.78
2023-04-03T00:05:49.295Z,100978.53
2023-04-03T00:08:20.115Z,100978.53
2023-04-03T00:10:50.605Z,100977.50
2023-04-03T00:13:21.895Z,100980.84
2023-04-03T00:15:52.566Z,100975.44
2023-04-03T00:18:24.436Z,100968.38
2023-04-03T00:20:55.406Z,100975.06
2023-04-03T00:23:25.930Z,100973.38
2023-04-03T00:25:57.385Z,100976.72
2023-04-03T00:28:28.780Z,100972.22
2023-04-03T00:31:00.150Z,100979.69
2023-04-03T00:33:31.128Z,100979.09
2023-04-03T00:36:01.757Z,100983.47
2023-04-03T00:38:32.735Z,100978.91
2023-04-03T00:41:03.691Z,100984.97
2023-04-03T00:43:35.084Z,100980.19
2023-04-03T00:46:05.922Z,100975.19
2023-04-03T00:48:43.792Z,100981.88
2023-04-03T00:51:20.459Z,100978.13
2023-04-03T00:53:55.102Z,100983.28
2023-04-03T00:56:28.115Z,100985.00
2023-04-03T00:59:07.112Z,100978.13
2023-04-03T01:01:37.532Z,100985.88
2023-04-03T01:04:26.843Z,100978.25
2023-04-03T01:07:20.834Z,100985.63
2023-04-03T01:09:54.271Z,100983.13
2023-04-03T01:12:34.757Z,100973.31
2023-04-03T01:15:12.181Z,100982.09
2023-04-03T01:17:49.917Z,100982.34
2023-04-03T01:20:26.934Z,100978.81
2023-04-03T01:23:15.299Z,100976.59
2023-04-03T01:25:51.913Z,100972.25
2023-04-03T01:28:35.522Z,100973.13
2023-04-03T01:31:15.407Z,100971.91
2023-04-03T01:33:47.747Z,100975.25
2023-04-03T01:36:31.284Z,100975.50
2023-04-03T01:39:02.510Z,100977.84
2023-04-03T01:41:32.965Z,100977.44
2023-04-03T01:44:14.971Z,100972.91
2023-04-03T01:46:46.440Z,100974.16
2023-04-03T01:49:17.536Z,100972.50
2023-04-03T01:51:49.003Z,100982.06
2023-04-03T01:54:19.457Z,100988.28
2023-04-03T01:56:50.516Z,100968.69
2023-04-03T01:59:22.795Z,100974.50
2023-04-03T02:01:54.819Z,100968.28
2023-04-03T02:04:26.354Z,100967.47
2023-04-03T02:06:57.133Z,100966.25
2023-04-03T02:09:28.680Z,100965.47
2023-04-03T02:11:59.725Z,100968.63
2023-04-03T02:14:30.143Z,100968.00
2023-04-03T02:17:00.587Z,100955.88
2023-04-03T02:19:31.473Z,100950.69
2023-04-03T02:22:02.292Z,100959.47
2023-04-03T02:24:34.570Z,100952.13
2023-04-03T02:27:05.088Z,100957.97
2023-04-03T02:29:35.933Z,100955.44
2023-04-03T02:32:07.278Z,100956.47
2023-04-03T02:34:39.245Z,100955.66
2023-04-03T02:37:10.490Z,100957.91
2023-04-03T02:39:41.675Z,100953.34
2023-04-03T02:42:16.777Z,100960.84
2023-04-03T02:44:47.534Z,100952.09
2023-04-03T02:47:18.506Z,100953.34
2023-04-03T02:49:49.010Z,100951.28
2023-04-03T02:52:19.323Z,100946.72
2023-04-03T02:54:51.182Z,100940.31
2023-04-03T02:57:21.976Z,100932.59
2023-04-03T02:59:52.750Z,100935.50
2023-04-03T03:02:25.135Z,100926.38
2023-04-03T03:04:59.062Z,100922.66
2023-04-03T03:07:29.938Z,100918.06
2023-04-03T03:10:00.804Z,100912.25
2023-04-03T03:12:34.430Z,100912.25
2023-04-03T03:15:05.679Z,100904.31
2023-04-03T03:17:37.853Z,100911.41
2023-04-03T03:20:10.560Z,100898.47
2023-04-03T03:22:41.435Z,100906.19
2023-04-03T03:25:21.362Z,100893.03
2023-04-03T03:27:52.147Z,100896.34
2023-04-03T03:30:23.188Z,100887.38
2023-04-03T03:32:54.860Z,100878.78
2023-04-03T03:35:26.445Z,100872.97
2023-04-03T03:37:57.953Z,100864.41
2023-04-03T03:40:28.527Z,100865.88
2023-04-03T03:42:59.839Z,100875.88
2023-04-03T03:45:31.392Z,100854.34
2023-04-03T03:48:02.452Z,100848.31
2023-04-03T03:50:33.032Z,100837.44
2023-04-03T03:53:04.154Z,100834.28
2023-04-03T03:55:34.942Z,100824.84
2023-04-03T03:58:06.541Z,100819.19
2023-04-03T04:00:37.976Z,100812.25
2023-04-03T04:03:09.217Z,100797.59
2023-04-03T04:05:40.436Z,100803.03
2023-04-03T04:08:11.968Z,100787.94
2023-04-03T04:10:43.307Z,100787.88
2023-04-03T04:13:17.042Z,100784.78
2023-04-03T04:15:47.982Z,100771.53
2023-04-03T04:18:22.075Z,100766.88
2023-04-03T04:20:53.943Z,100753.88
2023-04-03T04:23:27.069Z,100763.41
2023-04-03T04:25:58.324Z,100765.44
2023-04-03T04:28:31.525Z,100752.66
2023-04-03T04:31:04.289Z,100759.03
2023-04-03T04:33:36.747Z,100748.53
2023-04-03T04:36:09.476Z,100738.19
2023-04-03T04:38:41.220Z,100733.13
2023-04-03T04:41:12.508Z,100728.22
2023-04-03T04:43:43.750Z,100719.19
2023-04-03T04:46:17.063Z,100718.50
2023-04-03T04:48:52.890Z,100708.91
2023-04-03T04:51:25.551Z,100710.59
2023-04-03T04:53:56.417Z,100707.72
2023-04-03T04:56:28.291Z,100697.69
2023-04-03T04:59:00.323Z,100691.03
2023-04-03T05:01:31.375Z,100685.34
2023-04-03T05:04:08.658Z,100685.91
2023-04-03T05:06:50.528Z,100686.97
2023-04-03T05:09:25.374Z,100684.53
2023-04-03T05:11:59.438Z,100675.78
2023-04-03T05:14:34.526Z,100671.53
2023-04-03T05:17:10.080Z,100665.66
2023-04-03T05:19:44.149Z,100659.59
2023-04-03T05:22:15.603Z,100652.19
2023-04-03T05:24:47.009Z,100657.03
2023-04-03T05:27:18.748Z,100647.22
2023-04-03T05:29:55.519Z,100635.44
2023-04-03T05:32:29.339Z,100626.72
2023-04-03T05:35:17.767Z,100638.16
2023-04-03T05:37:52.164Z,100632.25
2023-04-03T05:40:23.226Z,100632.88
2023-04-03T05:43:56.808Z,100618.06
2023-04-03T05:46:30.971Z,100616.41
2023-04-03T05:49:05.552Z,100602.94
2023-04-03T05:51:40.110Z,100609.44
2023-04-03T05:54:29.705Z,100609.13
2023-04-03T05:57:14.027Z,100593.53
2023-04-03T05:59:46.511Z,100593.41
2023-04-03T06:02:25.786Z,100596.19
2023-04-03T06:04:57.034Z,100596.94
2023-04-03T06:07:30.333Z,100587.59
2023-04-03T06:10:02.206Z,100581.44
2023-04-03T06:12:33.404Z,100578.34
2023-04-03T06:15:04.357Z,100579.34
2023-04-03T06:20:22.914Z,100571.63
2023-04-03T06:22:55.593Z,100559.44
2023-04-03T06:25:26.476Z,100561.44
2023-04-03T06:27:57.609Z,100558.28
2023-04-03T06:30:28.333Z,100561.72
2023-04-03T06:32:58.796Z,100552.00
2023-04-03T06:35:30.450Z,100550.81
2023-04-03T06:38:01.531Z,100552.00
2023-04-03T06:40:32.415Z,100543.09
2023-04-03T06:43:02.919Z,100548.28
2023-04-03T06:45:33.663Z,100545.22
2023-04-03T06:48:05.251Z,100542.13
2023-04-03T06:50:35.732Z,100546.84
2023-04-03T06:53:15.840Z,100543.78
2023-04-03T06:55:46.169Z,100541.00
2023-04-03T06:58:21.706Z,100539.44
2023-04-03T07:00:56.234Z,100538.25
2023-04-03T07:03:26.924Z,100557.28
2023-04-03T07:06:00.753Z,100545.78
2023-04-03T07:08:30.914Z,100550.63
2023-04-03T07:11:02.478Z,100549.09
2023-04-03T07:13:33.543Z,100540.38
2023-04-03T07:16:06.923Z,100547.84
2023-04-03T07:18:37.599Z,100547.38
2023-04-03T07:21:08.668Z,100541.00
2023-04-03T07:23:39.430Z,100532.97
2023-04-03T07:26:11.083Z,100528.72
2023-04-03T07:28:43.126Z,100538.19
2023-04-03T07:31:18.789Z,100528.38
2023-04-03T07:33:49.967Z,100531.81
2023-04-03T07:36:23.566Z,100528.97
2023-04-03T07:38:54.636Z,100527.91
2023-04-03T07:41:25.374Z,100530.16
2023-04-03T07:43:56.918Z,100534.41
2023-04-03T07:46:28.115Z,100527.78
2023-04-03T07:48:58.866Z,100535.81
2023-04-03T07:51:31.832Z,100536.28
2023-04-03T07:54:02.899Z,100534.72
2023-04-03T07:56:34.110Z,100531.06
2023-04-03T08:02:17.366Z,100538.81
2023-04-03T08:04:48.128Z,100533.00
2023-04-03T08:07:19.025Z,100529.69
2023-04-03T08:09:49.399Z,100525.53
2023-04-03T08:12:20.470Z,100521.75
2023-04-03T08:14:51.476Z,100529.31
2023-04-03T08:17:22.031Z,100534.16
2023-04-03T08:19:53.361Z,100526.00
2023-04-03T08:22:23.734Z,100540.66
2023-04-03T08:24:59.532Z,100538.59
2023-04-03T08:27:30.483Z,100531.13
2023-04-03T08:30:01.950Z,100527.81
2023-04-03T08:32:32.684Z,100531.59
2023-04-03T08:35:03.331Z,100522.09
2023-04-03T08:37:34.517Z,100536.47
2023-04-03T08:40:08.398Z,100533.16
2023-04-03T08:42:56.623Z,100535.72
2023-04-03T08:45:45.377Z,100544.94
2023-04-03T08:48:23.585Z,100558.81
2023-04-03T08:50:57.380Z,100562.59
2023-04-03T08:53:33.080Z,100554.44
2023-04-03T08:56:10.209Z,100560.78
2023-04-03T08:58:49.800Z,100565.16
2023-04-03T09:01:38.428Z,100569.53
2023-04-03T09:04:19.850Z,100558.50
2023-04-03T09:06:58.316Z,100553.38
2023-04-03T09:09:37.872Z,100557.91
2023-04-03T09:12:30.049Z,100563.81
2023-04-03T09:15:24.845Z,100578.13
2023-04-03T09:18:25.921Z,100574.38
2023-04-03T09:21:16.768Z,100567.28
2023-04-03T09:23:52.718Z,100570.69
2023-04-03T09:26:31.873Z,100577.16
2023-04-03T09:29:05.435Z,100574.91
2023-04-03T09:31:44.580Z,100577.00
2023-04-03T09:34:39.118Z,100583.69
2023-04-03T09:37:10.666Z,100589.38
2023-04-03T09:39:56.430Z,100591.03
2023-04-03T09:42:28.287Z,100590.88
2023-04-03T09:45:05.843Z,100594.03
2023-04-03T09:47:38.262Z,100596.13
2023-04-03T09:50:17.724Z,100600.94
2023-04-03T09:52:56.577Z,100606.66
2023-04-03T09:55:31.012Z,100608.13
2023-04-03T09:58:42.722Z,100613.75
2023-04-03T10:01:30.728Z,100613.56
2023-04-03T10:04:19.055Z,100617.34
2023-04-03T10:06:52.935Z,100619.00
2023-04-03T10:09:28.738Z,100621.94
2023-04-03T10:12:11.244Z,100630.75
2023-04-03T10:14:58.864Z,100628.25
2023-04-03T10:17:38.282Z,100636.22
2023-04-03T10:20:36.094Z,100642.88
2023-04-03T10:23:25.614Z,100644.59
2023-04-03T10:26:14.957Z,100644.16
2023-04-03T10:28:54.739Z,100652.75
2023-04-03T10:31:30.683Z,100655.03
2023-04-03T10:34:13.376Z,100659.03
2023-04-03T10:37:20.864Z,100662.75
2023-04-03T10:40:00.247Z,100658.78
2023-04-03T10:42:46.784Z,100659.22
2023-04-03T10:45:30.960Z,100666.38
2023-04-03T10:48:21.767Z,100670.13
2023-04-03T10:51:18.163Z,100676.38
2023-04-03T10:54:05.813Z,100682.66
2023-04-03T10:57:01.032Z,100682.66
2023-04-03T10:59:50.789Z,100681.22
2023-04-03T11:02:38.794Z,100676.41
2023-04-03T11:05:16.625Z,100685.00
2023-04-03T11:07:54.650Z,100696.88
2023-04-03T11:10:42.844Z,100709.59
2023-04-03T11:13:31.841Z,100702.50
2023-04-03T11:16:03.439Z,100712.13
2023-04-03T11:19:04.599Z,100711.06
2023-04-03T11:21:49.125Z,100710.69
2023-04-03T11:24:28.487Z,100713.22
2023-04-03T11:27:04.686Z,100723.66
2023-04-03T11:29:41.613Z,100721.59
2023-04-03T11:32:50.793Z,100722.84
2023-04-03T11:35:22.261Z,100736.19
2023-04-03T11:37:56.718Z,100743.28
2023-04-03T11:40:29.961Z,100745.97
2023-04-03T11:43:30.644Z,100750.59
2023-04-03T11:46:08.472Z,100744.53
2023-04-03T11:48:39.758Z,100742.84
2023-04-03T11:51:19.479Z,100758.72
2023-04-03T11:53:50.235Z,100751.41
2023-04-03T11:56:27.678Z,100759.13
2023-04-03T11:59:17.285Z,100758.50
2023-04-03T12:02:00.090Z,100754.13
2023-04-03T12:04:32.409Z,100756.22
2023-04-03T12:07:14.501Z,100769.97
2023-04-03T12:09:50.350Z,100767.44
2023-04-03T12:12:40.908Z,100774.34
2023-04-03T12:15:44.821Z,100786.66
2023-04-03T12:18:53.428Z,100781.66
2023-04-03T12:21:38.656Z,100791.25
2023-04-03T12:24:12.640Z,100799.19
2023-04-03T12:26:53.700Z,100805.84
2023-04-03T12:29:25.697Z,100808.97
2023-04-03T12:32:32.859Z,100813.97
2023-04-03T12:35:17.916Z,100812.09
2023-04-03T12:38:18.729Z,100822.13
2023-04-03T12:40:54.303Z,100835.47
2023-04-03T12:43:45.720Z,100838.38
2023-04-03T12:46:25.041Z,100843.34
2023-04-03T12:49:01.519Z,100848.34
2023-04-03T12:51:45.648Z,100837.50
2023-04-03T12:54:21.704Z,100842.06
2023-04-03T12:56:52.879Z,100847.06
2023-04-03T12:59:28.775Z,100848.94
2023-04-03T13:02:04.323Z,100849.56
2023-04-03T13:04:35.364Z,100847.28
2023-04-03T13:07:06.152Z,100857.06
2023-04-03T13:09:36.679Z,100851.66
2023-04-03T13:12:16.198Z,100849.97
2023-04-03T13:15:03.185Z,100847.03
2023-04-03T13:17:34.665Z,100852.88
2023-04-03T13:20:26.790Z,100855.81
2023-04-03T13:23:02.060Z,100857.44
2023-04-03T13:25:35.660Z,100865.97
2023-04-03T13:28:23.499Z,100871.16
2023-04-03T13:31:28.279Z,100869.94
2023-04-03T13:34:05.144Z,100877.44
2023-04-03T13:36:44.758Z,100870.81
2023-04-03T13:39:15.864Z,100871.22
2023-04-03T13:41:57.381Z,100876.66
2023-04-03T13:44:41.360Z,100882.91
2023-04-03T13:47:14.882Z,100889.19
2023-04-03T13:49:48.054Z,100886.88
2023-04-03T13:52:42.430Z,100884.59
2023-04-03T13:55:28.378Z,100881.91
2023-04-03T13:58:00.424Z,100884.59
2023-04-03T14:00:54.132Z,100881.50
2023-04-03T14:03:28.054Z,100877.72
2023-04-03T14:05:59.321Z,100885.03
2023-04-03T14:08:42.422Z,100877.94
2023-04-03T14:11:18.186Z,100875.84
2023-04-03T14:13:50.142Z,100875.22
2023-04-03T14:16:27.340Z,100880.00
2023-04-03T14:18:58.482Z,100877.94
2023-04-03T14:21:28.868Z,100879.16
2023-04-03T14:23:59.387Z,100883.75
2023-04-03T14:26:32.294Z,100885.44
2023-04-03T14:29:03.156Z,100882.09
2023-04-03T14:31:33.819Z,100877.91
2023-04-03T14:34:04.549Z,100882.06
2023-04-03T14:36:36.404Z,100884.97
2023-04-03T14:39:10.687Z,100882.91
2023-04-03T14:41:41.066Z,100879.34
2023-04-03T14:44:11.876Z,100886.66
2023-04-03T14:46:56.059Z,100894.16
2023-04-03T14:49:31.172Z,100881.00
2023-04-03T14:52:23.500Z,100874.56
2023-04-03T14:54:54.523Z,100882.44
2023-04-03T14:57:28.025Z,100878.66
2023-04-03T14:59:59.197Z,100877.03
2023-04-03T15:02:33.444Z,100877.84
2023-04-03T15:05:06.153Z,100874.50
2023-04-03T15:08:11.740Z,100870.97
2023-04-03T15:10:42.680Z,100863.88
2023-04-03T15:13:15.106Z,100866.78
2023-04-03T15:15:46.260Z,100865.69
2023-04-03T15:18:23.144Z,100866.16
2023-04-03T15:20:53.484Z,100868.69
2023-04-03T15:23:27.876Z,100860.28
2023-04-03T15:25:59.303Z,100874.00
2023-04-03T15:28:38.026Z,100869.22
2023-04-03T15:31:09.471Z,100879.25
2023-04-03T15:33:40.586Z,100880.06
2023-04-03T15:36:29.232Z,100881.50
2023-04-03T15:39:07.209Z,100867.56
2023-04-03T15:41:37.629Z,100874.41
2023-04-03T15:44:10.309Z,100861.28
2023-04-03T15:46:43.025Z,100865.88
2023-04-03T15:49:14.686Z,100864.00
2023-04-03T15:51:45.277Z,100864.00
2023-04-03T15:54:16.042Z,100868.78
2023-04-03T15:56:47.247Z,100872.53
2023-04-03T15:59:18.075Z,100868.13
2023-04-03T16:01:57.719Z,100874.81
2023-04-03T16:04:28.221Z,100875.22
2023-04-03T16:06:58.692Z,100873.97
2023-04-03T16:09:29.414Z,100864.16
2023-04-03T16:12:00.262Z,100871.47
2023-04-03T16:14:32.206Z,100865.84
2023-04-03T16:17:03.736Z,100865.59
2023-04-03T16:19:34.376Z,100866.44
2023-04-03T16:22:05.478Z,100861.22
2023-04-03T16:24:37.510Z,100863.28
2023-04-03T16:27:08.408Z,100865.81
2023-04-03T16:29:38.795Z,100863.94
2023-04-03T16:32:12.264Z,100868.53
2023-04-03T16:34:42.971Z,100858.91
2023-04-03T16:37:13.973Z,100875.16
2023-04-03T16:39:45.314Z,100862.03
2023-04-03T16:42:15.783Z,100863.91
2023-04-03T16:44:46.222Z,100854.75
2023-04-03T16:47:21.676Z,100856.38
2023-04-03T16:49:55.249Z,100847.63
2023-04-03T16:52:25.656Z,100844.69
2023-04-03T16:54:57.323Z,100840.94
2023-04-03T16:57:28.078Z,100850.31
2023-04-03T16:59:58.624Z,100856.31
2023-04-03T17:02:29.583Z,100848.19
2023-04-03T17:04:59.898Z,100853.00
2023-04-03T17:07:30.125Z,100850.66
2023-04-03T17:10:01.555Z,100851.47
2023-04-03T17:12:32.468Z,100857.09
2023-04-03T17:15:03.582Z,100856.06
2023-04-03T17:17:34.142Z,100847.06
2023-04-03T17:20:04.981Z,100850.41
2023-04-03T17:22:36.946Z,100850.81
2023-04-03T17:25:07.856Z,100844.75
2023-04-03T17:27:38.688Z,100847.66
2023-04-03T17:30:12.179Z,100845.56
2023-04-03T17:32:42.803Z,100844.31
2023-04-03T17:35:13.035Z,100844.53
2023-04-03T17:37:47.104Z,100846.59
2023-04-03T17:40:19.618Z,100842.63
2023-04-03T17:42:53.187Z,100838.25
2023-04-03T17:45:26.506Z,100830.34
2023-04-03T17:47:56.844Z,100836.16
2023-04-03T17:50:27.437Z,100843.25
2023-04-03T17:52:58.021Z,100841.56
2023-04-03T17:55:28.912Z,100844.28
2023-04-03T17:57:59.294Z,100844.84
2023-04-03T18:00:30.749Z,100853.81
2023-04-03T18:03:01.040Z,100857.56
2023-04-03T18:05:31.966Z,100866.06
2023-04-03T18:08:03.704Z,100861.50
2023-04-03T18:10:34.571Z,100864.78
2023-04-03T18:13:08.386Z,100860.59
2023-04-03T18:15:46.778Z,100867.69
2023-04-03T18:18:18.042Z,100854.38
2023-04-03T18:20:48.764Z,100858.50
2023-04-03T18:23:19.697Z,100847.03
2023-04-03T18:25:50.311Z,100851.81
2023-04-03T18:28:21.411Z,100845.75
2023-04-03T18:30:52.723Z,100839.31
2023-04-03T18:33:23.027Z,100840.06
2023-04-03T18:35:56.594Z,100840.06
2023-04-03T18:38:26.869Z,100842.97
2023-04-03T18:40:58.003Z,100843.16
2023-04-03T18:43:34.093Z,100841.25
2023-04-03T18:46:07.144Z,100832.50
2023-04-03T18:48:42.098Z,100825.81
2023-04-03T18:51:12.576Z,100828.72
2023-04-03T18:53:42.995Z,100830.97
2023-04-03T18:56:13.653Z,100833.63
2023-04-03T18:58:47.405Z,100829.88
2023-04-03T19:01:20.636Z,100832.50
2023-04-03T19:03:58.907Z,100828.53
2023-04-03T19:06:31.280Z,100842.25
2023-04-03T19:09:02.632Z,100838.44
2023-04-03T19:11:33.270Z,100833.41
2023-04-03T19:14:15.267Z,100842.56
2023-04-03T19:16:47.340Z,100839.56
2023-04-03T19:19:17.557Z,100847.03
2023-04-03T19:21:49.493Z,100850.75
2023-04-03T19:24:20.264Z,100844.06
2023-04-03T19:26:50.720Z,100849.03
2023-04-03T19:29:21.321Z,100848.16
2023-04-03T19:31:52.479Z,100845.47
2023-04-03T19:34:22.952Z,100848.56
2023-04-03T19:36:54.282Z,100844.81
2023-04-03T19:39:25.225Z,100838.13
2023-04-03T19:41:55.825Z,100835.81
2023-04-03T19:44:27.280Z,100842.66
2023-04-03T19:47:03.836Z,100842.66
2023-04-03T19:49:34.513Z,100838.06
2023-04-03T19:52:05.291Z,100837.63
2023-04-03T19:54:35.877Z,100838.66
2023-04-03T19:57:06.989Z,100831.59
2023-04-03T19:59:37.630Z,100834.66
2023-04-03T20:02:08.889Z,100833.00
2023-04-03T20:04:40.202Z,100824.25
2023-04-03T20:07:12.633Z,100829.00
2023-04-03T20:09:43.299Z,100820.91
2023-04-03T20:12:13.800Z,100810.47
2023-04-03T20:14:44.660Z,100810.47
2023-04-03T20:17:16.601Z,100817.94
2023-04-03T20:19:47.003Z,100827.06
2023-04-03T20:22:17.300Z,100829.09
2023-04-03T20:24:48.423Z,100820.34
2023-04-03T20:27:19.434Z,100830.66
2023-04-03T20:29:50.294Z,100828.84
2023-04-03T20:32:22.428Z,100831.69
2023-04-03T20:35:03.059Z,100841.00
2023-04-03T20:37:34.853Z,100839.34
2023-04-03T20:40:06.258Z,100846.78
2023-04-03T20:42:36.925Z,100842.19
2023-04-03T20:45:08.868Z,100847.16
2023-04-03T20:47:39.724Z,100850.22
2023-04-03T20:50:10.931Z,100852.94
2023-04-03T20:52:41.873Z,100856.00
2023-04-03T20:55:15.040Z,100862.06
2023-04-03T20:57:54.524Z,100873.88
2023-04-03T21:00:25.511Z,100859.53
2023-04-03T21:02:58.074Z,100874.03
2023-04-03T21:05:31.030Z,100867.34
2023-04-03T21:08:38.042Z,100860.38
2023-04-03T21:11:45.090Z,100872.19
2023-04-03T21:14:52.995Z,100883.16
2023-04-03T21:17:25.569Z,100893.88
2023-04-03T21:19:56.086Z,100892.22
2023-04-03T21:22:26.761Z,100895.94
2023-04-03T21:24:58.907Z,100895.28
2023-04-03T21:27:30.004Z,100899.81
2023-04-03T21:30:01.301Z,100900.69
2023-04-03T21:32:32.270Z,100902.53
2023-04-03T21:35:02.597Z,100907.91
2023-04-03T21:37:35.440Z,100902.88
2023-04-03T21:40:07.082Z,100904.78
2023-04-03T21:42:38.191Z,100918.25
2023-04-03T21:45:09.505Z,100920.31
2023-04-03T21:47:40.782Z,100924.84
2023-04-03T21:50:11.720Z,100931.91
2023-04-03T21:52:41.955Z,100939.84
2023-04-03T21:55:13.382Z,100941.88
2023-04-03T21:57:44.503Z,100946.44
2023-04-03T22:00:15.956Z,100943.94
2023-04-03T22:02:47.583Z,100944.59
2023-04-03T22:05:19.881Z,100933.97
2023-04-03T22:07:50.949Z,100933.78
2023-04-03T22:10:21.982Z,100943.09
2023-04-03T22:12:52.265Z,100940.22
2023-04-03T22:15:23.429Z,100944.97
2023-04-03T22:17:54.094Z,100940.38
2023-04-03T22:20:25.199Z,100944.97
2023-04-03T22:22:55.576Z,100954.28
2023-04-03T22:25:26.146Z,100959.47
2023-04-03T22:27:57.130Z,100962.16
2023-04-03T22:30:28.404Z,100946.84
2023-04-03T22:32:58.963Z,100951.38
2023-04-03T22:35:29.388Z,100962.16
2023-04-03T22:38:00.273Z,100965.53
2023-04-03T22:40:30.855Z,100974.63
2023-04-03T22:43:01.992Z,100976.31
2023-04-03T22:45:32.977Z,100985.44
2023-04-03T22:48:03.459Z,100984.59
2023-04-03T22:50:34.994Z,100977.13
2023-04-03T22:53:08.709Z,100982.38
2023-04-03T22:55:39.834Z,100990.47
2023-04-03T22:58:10.044Z,100994.84
2023-04-03T23:00:40.833Z,100992.97
2023-04-03T23:03:13.880Z,100996.69
2023-04-03T23:05:44.202Z,100996.69
2023-04-03T23:08:14.866Z,100999.56
2023-04-03T23:10:45.446Z,101001.25
2023-04-03T23:13:16.422Z,101009.16
2023-04-03T23:15:57.499Z,101011.03
2023-04-03T23:18:36.344Z,101012.06
2023-04-03T23:21:08.761Z,101016.44
2023-04-03T23:23:39.536Z,101012.72
2023-04-03T23:26:10.640Z,101016.22
2023-04-03T23:28:42.881Z,101014.38
2023-04-03T23:31:13.865Z,101005.25
2023-04-03T23:33:47.157Z,101009.66
2023-04-03T23:36:21.904Z,101012.72
2023-04-03T23:38:52.641Z,101014.19
2023-04-03T23:41:23.282Z,101015.50
2023-04-03T23:43:56.487Z,101013.94
2023-04-03T23:46:27.758Z,101013.22
2023-04-03T23:48:59.137Z,101010.16
2023-04-03T23:51:30.422Z,101014.16
2023-04-03T23:54:01.048Z,101011.09
2023-04-03T23:56:32.413Z,101015.13
2023-04-03T23:59:03.092Z,101019.31
